Confresa, Brazil
Current Conditions -  °F | °C
As of 11:00 AM on Thursday 27 Nov 2014 (Local Time) from SBPJ Reporting Station
Rain Showers Rain Showers  
Wind Chill: 84°   Ceiling: Unl
Heat Index: 90°   Visibility: 6mi
Dew Point: 72°   Wind: 9mph
Humidity: 66%   Direction: 230°SW
Pressure: 29.88"   Gusts: NA
Location:  10.64°S, 51.57°W
Report Text: SBPJ 271400Z 23008KT 9999 VCSH SCT025 FEW027TCU 29/22 Q1012
Loading
Personal Weather Stations






























Interactive Weather Map New forecast layout! Learn more

10-Day Weather Forecast

Advertisements
Track Severe Weather on mobile